Nearby METAR Reports

 

KMSY - New Orleans,Louisiana, USA
Distance from station: E 11.7mi, 18.8km
Updated: Sun, 03-Mar-2024 9:22am CST
Mostly Cloudy
Mostly Cloudy
 Wind from ESE
Wind: ESE 9 mph , 15 km/h
Temperature: 70°F , 21°C
Dew Point: 66°F , 19°C
Humidity: 88%
Barometer: 1018.3 hPa
Clouds: Mostly Cloudy
Visibility: 10 miles , 16 km
Cloud details: Partly Cloudy 800 ft
Partly Cloudy 3500 ft
Mostly Cloudy 25000 ft
2024/03/03 15:22 KMSY 031522Z 12008KT 10SM SCT008 SCT035 BKN250 21/19 A3007 RMK AO2 T02110189
KAPS - Reserve,Louisiana, USA
Distance from station: W 8.4mi, 13.5km
Updated: Sun, 03-Mar-2024 9:34am CST
Overcast
Overcast
 Wind from E
Wind: E 8 mph , 13 km/h
Temperature: 68°F , 20°C
Dew Point: 64°F , 18°C
Humidity: 88%
Barometer: 1018.3 hPa
Clouds: Overcast
Visibility: 10 miles , 16 km
Cloud details: Overcast 800 ft
2024/03/03 15:34 KAPS 031534Z AUTO 10007KT 10SM OVC008 20/18 A3007 RMK AO2
 
KHDC - Hammond,Louisiana, USA
Distance from station: N 31.5mi, 50.6km
Updated: Sun, 03-Mar-2024 9:35am CST
Overcast
Overcast
 Wind from SE
Wind: SE 3 mph , 6 km/h
Temperature: 66°F , 19°C
Dew Point: 64°F , 18°C
Humidity: 94%
Barometer: 1018.6 hPa
Clouds: Overcast
Visibility: 10 miles , 16 km
Cloud details: Overcast 800 ft
2024/03/03 15:35 KHDC 031535Z AUTO 14003KT 10SM OVC008 19/18 A3008 RMK AO2 T01900180
KHUM - Houma,Louisiana, USA
Distance from station: SW 36.54mi, 58.8km
Updated: Sun, 03-Mar-2024 9:31am CST
Partly Cloudy
Partly Cloudy
 Wind from ESE
Wind: ESE 10 mph , 17 km/h
Temperature: 72°F , 22°C
Dew Point: 66°F , 19°C
Humidity: 83%
Barometer: 1018.3 hPa
Clouds: Partly Cloudy
Visibility: 7 miles , 11 km
Cloud details: Partly Cloudy 800 ft
Partly Cloudy 2500 ft
2024/03/03 15:31 KHUM 031531Z 11009KT 7SM SCT008 SCT025 22/19 A3007